createdAt,value
2018-05-16T00:01:00.003Z,8.10
2018-05-16T00:02:00.047Z,8.50
2018-05-16T00:03:00.107Z,10.20
2018-05-16T00:04:00.166Z,8.10
2018-05-16T00:05:00.227Z,9.30
2018-05-16T00:06:00.288Z,9.30
2018-05-16T00:07:00.348Z,9.40
2018-05-16T00:08:00.412Z,8.20
2018-05-16T00:09:00.468Z,6.40
2018-05-16T00:10:00.530Z,7.40
2018-05-16T00:11:00.590Z,9.50
2018-05-16T00:12:00.650Z,10.30
2018-05-16T00:13:00.709Z,9.10
2018-05-16T00:14:00.771Z,8.70
2018-05-16T00:15:00.831Z,9.60
2018-05-16T00:16:00.891Z,8.80
2018-05-16T00:17:00.950Z,9.90
2018-05-16T00:18:01.013Z,9.10
2018-05-16T00:19:01.073Z,7.30
2018-05-16T00:20:01.132Z,9.20
2018-05-16T00:21:01.196Z,7.40
2018-05-16T00:22:01.254Z,8.00
2018-05-16T00:23:01.314Z,9.80
2018-05-16T00:24:01.387Z,7.20
2018-05-16T00:25:01.436Z,11.20
2018-05-16T00:26:01.495Z,8.60
2018-05-16T00:27:01.555Z,9.10
2018-05-16T00:28:01.632Z,9.20
2018-05-16T00:29:01.675Z,8.90
2018-05-16T00:30:01.735Z,8.00
2018-05-16T00:31:01.803Z,7.10
2018-05-16T00:32:01.861Z,9.20
2018-05-16T00:33:01.917Z,7.90
2018-05-16T00:34:01.982Z,10.00
2018-05-16T00:35:02.039Z,7.80
2018-05-16T00:36:02.098Z,9.60
2018-05-16T00:37:02.161Z,9.20
2018-05-16T00:38:02.220Z,10.50
2018-05-16T00:39:02.280Z,9.40
2018-05-16T00:40:02.340Z,8.20
2018-05-16T00:41:02.401Z,7.60
2018-05-16T00:42:02.460Z,8.10
2018-05-16T00:43:02.521Z,9.00
2018-05-16T00:44:02.581Z,8.90
2018-05-16T00:45:02.642Z,8.70
2018-05-16T00:46:02.702Z,10.40
2018-05-16T00:47:02.762Z,8.20
2018-05-16T00:48:02.822Z,9.40
2018-05-16T00:49:02.884Z,9.90
2018-05-16T00:50:02.943Z,8.50
2018-05-16T00:51:03.004Z,7.70
2018-05-16T00:52:03.066Z,8.50
2018-05-16T00:53:03.124Z,9.40
2018-05-16T00:54:03.185Z,8.30
2018-05-16T00:55:03.246Z,10.90
2018-05-16T00:56:03.305Z,8.60
2018-05-16T00:57:03.365Z,8.90
2018-05-16T00:58:03.426Z,8.40
2018-05-16T00:59:03.488Z,8.20
2018-05-16T01:00:03.547Z,9.70
2018-05-16T01:01:03.630Z,7.00
2018-05-16T01:02:03.669Z,9.00
2018-05-16T01:03:03.728Z,9.50
2018-05-16T01:04:03.790Z,7.20
2018-05-16T01:05:03.893Z,8.70
2018-05-16T01:06:03.910Z,9.10
2018-05-16T01:07:03.975Z,7.70
2018-05-16T01:08:04.033Z,7.20
2018-05-16T01:09:04.093Z,10.80
2018-05-16T01:10:04.153Z,9.00
2018-05-16T01:11:04.214Z,11.80
2018-05-16T01:12:04.274Z,9.50
2018-05-16T01:13:04.335Z,7.10
2018-05-16T01:14:04.395Z,8.60
2018-05-16T01:15:04.457Z,9.70
2018-05-16T01:16:04.520Z,10.10
2018-05-16T01:17:04.578Z,8.40
2018-05-16T01:18:04.737Z,11.00
2018-05-16T01:19:04.698Z,8.50
2018-05-16T01:20:04.760Z,10.40
2018-05-16T01:21:04.819Z,7.50
2018-05-16T01:22:04.946Z,9.60
2018-05-16T01:23:04.941Z,8.60
2018-05-16T01:24:05.001Z,9.80
2018-05-16T01:25:05.063Z,8.50
2018-05-16T01:26:05.123Z,10.90
2018-05-16T01:27:05.185Z,8.70
2018-05-16T01:28:05.244Z,13.70
2018-05-16T01:29:05.306Z,10.40
2018-05-16T01:30:05.366Z,10.50
2018-05-16T01:31:05.430Z,10.50
2018-05-16T01:32:05.488Z,9.60
2018-05-16T01:33:05.549Z,10.20
2018-05-16T01:34:05.610Z,13.00
2018-05-16T01:35:05.674Z,9.90
2018-05-16T01:36:05.733Z,9.00
2018-05-16T01:37:05.795Z,10.60
2018-05-16T01:38:05.853Z,10.80
2018-05-16T01:39:05.914Z,11.10
2018-05-16T01:40:06.171Z,9.60
2018-05-16T01:41:06.038Z,9.10
2018-05-16T01:42:06.100Z,10.70
2018-05-16T01:43:06.158Z,11.20
2018-05-16T01:44:06.219Z,11.40
2018-05-16T01:45:06.278Z,9.60
2018-05-16T01:46:06.342Z,12.30
2018-05-16T01:47:06.402Z,10.90
2018-05-16T01:48:06.462Z,11.10
2018-05-16T01:49:06.522Z,10.70
2018-05-16T01:50:06.583Z,11.80
2018-05-16T01:51:06.644Z,13.70
2018-05-16T01:52:06.704Z,13.40
2018-05-16T01:53:06.766Z,12.10
2018-05-16T01:54:06.826Z,10.40
2018-05-16T01:55:06.887Z,11.00
2018-05-16T01:56:06.948Z,11.90
2018-05-16T01:57:07.008Z,12.30
2018-05-16T01:58:07.070Z,13.30
2018-05-16T01:59:07.130Z,11.90
2018-05-16T02:00:07.190Z,14.20
2018-05-16T02:01:07.251Z,13.80
2018-05-16T02:02:07.311Z,12.80
2018-05-16T02:03:07.373Z,15.50
2018-05-16T02:04:07.437Z,15.00
2018-05-16T02:05:07.493Z,13.20
2018-05-16T02:06:07.554Z,13.30
2018-05-16T02:07:07.615Z,14.70
2018-05-16T02:08:07.673Z,14.30
2018-05-16T02:09:07.735Z,13.80
2018-05-16T02:10:07.795Z,12.10
2018-05-16T02:11:07.856Z,13.30
2018-05-16T02:12:07.917Z,14.00
2018-05-16T02:13:07.978Z,13.40
2018-05-16T02:14:08.038Z,14.70
2018-05-16T02:15:08.099Z,14.00
2018-05-16T02:16:08.159Z,13.90
2018-05-16T02:17:08.224Z,12.50
2018-05-16T02:18:08.280Z,12.50
2018-05-16T02:19:08.341Z,12.10
2018-05-16T02:20:08.401Z,12.80
2018-05-16T02:21:08.461Z,11.00
2018-05-16T02:22:08.522Z,12.90
2018-05-16T02:23:08.584Z,12.30
2018-05-16T02:24:08.643Z,12.00
2018-05-16T02:25:08.704Z,12.70
2018-05-16T02:26:08.765Z,12.50
2018-05-16T02:27:08.824Z,12.80
2018-05-16T02:28:08.885Z,12.10
2018-05-16T02:29:08.945Z,12.80
2018-05-16T02:30:09.007Z,13.10
2018-05-16T02:31:09.066Z,14.40
2018-05-16T02:32:09.130Z,14.10
2018-05-16T02:33:09.192Z,10.90
2018-05-16T02:34:09.249Z,12.20
2018-05-16T02:35:09.309Z,15.00
2018-05-16T02:36:09.369Z,12.40
2018-05-16T02:37:09.440Z,11.10
2018-05-16T02:38:09.494Z,12.90
2018-05-16T02:39:09.553Z,15.70
2018-05-16T02:40:09.611Z,12.40
2018-05-16T02:41:09.751Z,12.60
2018-05-16T02:42:09.733Z,14.50
2018-05-16T02:43:09.792Z,13.50
2018-05-16T02:44:09.854Z,13.90
2018-05-16T02:45:09.914Z,13.10
2018-05-16T02:46:09.975Z,14.40
2018-05-16T02:47:10.036Z,13.20
2018-05-16T02:48:10.094Z,15.40
2018-05-16T02:49:10.155Z,15.90
2018-05-16T02:50:10.214Z,15.20
2018-05-16T02:51:10.277Z,12.90
2018-05-16T02:52:10.337Z,13.40
2018-05-16T02:53:10.396Z,12.00
2018-05-16T02:54:10.708Z,13.60
2018-05-16T02:55:10.518Z,14.00
2018-05-16T02:56:10.578Z,14.30
2018-05-16T02:57:10.637Z,13.50
2018-05-16T02:58:10.707Z,14.10
2018-05-16T02:59:10.760Z,13.00
2018-05-16T03:00:10.819Z,12.90
2018-05-16T03:01:10.880Z,14.30
2018-05-16T03:02:10.940Z,12.30
2018-05-16T03:03:10.999Z,12.60
2018-05-16T03:04:11.066Z,15.50
2018-05-16T03:05:11.123Z,12.70
2018-05-16T03:06:11.182Z,14.70
2018-05-16T03:07:11.240Z,14.10
2018-05-16T03:08:11.303Z,14.00
2018-05-16T03:09:11.367Z,12.90
2018-05-16T03:10:11.421Z,15.30
2018-05-16T03:11:11.484Z,13.70
2018-05-16T03:12:11.543Z,13.00
2018-05-16T03:13:11.602Z,13.70
2018-05-16T03:14:11.663Z,17.20
2018-05-16T03:15:11.727Z,12.90
2018-05-16T03:16:11.784Z,14.10
2018-05-16T03:17:11.843Z,13.30
2018-05-16T03:18:11.903Z,14.40
2018-05-16T03:19:11.964Z,13.50
2018-05-16T03:20:12.024Z,14.90
2018-05-16T03:21:12.085Z,14.50
2018-05-16T03:22:12.146Z,13.70
2018-05-16T03:23:12.205Z,17.10
2018-05-16T03:24:12.265Z,15.80
2018-05-16T03:25:12.324Z,14.90
2018-05-16T03:26:12.385Z,14.00
2018-05-16T03:27:12.477Z,14.40
2018-05-16T03:28:12.505Z,14.80
2018-05-16T03:29:12.565Z,11.50
2018-05-16T03:30:12.641Z,16.70
2018-05-16T03:31:12.686Z,12.30
2018-05-16T03:32:12.746Z,13.90
2018-05-16T03:33:12.806Z,12.10
2018-05-16T03:34:12.866Z,11.40
2018-05-16T03:35:12.927Z,12.00
2018-05-16T03:36:12.986Z,13.70
2018-05-16T03:37:13.047Z,12.60
2018-05-16T03:38:13.107Z,11.20
2018-05-16T03:39:13.169Z,13.10
2018-05-16T03:40:13.225Z,12.00
2018-05-16T03:41:13.289Z,10.20
2018-05-16T03:42:13.345Z,13.30
2018-05-16T03:43:13.407Z,16.60
2018-05-16T03:44:13.466Z,11.10
2018-05-16T03:45:13.526Z,11.40
2018-05-16T03:46:13.587Z,12.90
2018-05-16T03:47:13.647Z,12.10
2018-05-16T03:48:13.706Z,9.90
2018-05-16T03:49:13.766Z,11.30
2018-05-16T03:50:13.828Z,13.60
2018-05-16T03:51:13.887Z,14.80
2018-05-16T03:52:13.946Z,12.30
2018-05-16T03:53:14.023Z,10.90
2018-05-16T03:54:14.452Z,10.80
2018-05-16T03:55:14.127Z,13.10
2018-05-16T03:56:14.185Z,12.00
2018-05-16T03:57:14.247Z,12.20
2018-05-16T03:58:14.336Z,12.70
2018-05-16T03:59:14.368Z,12.00
2018-05-16T04:00:14.464Z,11.10
2018-05-16T04:01:14.525Z,9.80
2018-05-16T04:02:14.815Z,11.50
2018-05-16T04:03:14.651Z,12.20
2018-05-16T04:04:14.697Z,10.20
2018-05-16T04:05:14.757Z,9.00
2018-05-16T04:06:14.821Z,9.70
2018-05-16T04:07:14.931Z,10.50
2018-05-16T04:08:14.940Z,10.80
2018-05-16T04:09:14.983Z,10.90
2018-05-16T04:10:15.060Z,12.50
2018-05-16T04:11:15.121Z,12.50
2018-05-16T04:12:15.188Z,11.60
2018-05-16T04:13:15.290Z,10.80
2018-05-16T04:14:15.301Z,10.50
2018-05-16T04:15:15.330Z,12.50
2018-05-16T04:16:15.390Z,10.70
2018-05-16T04:17:15.449Z,14.00
2018-05-16T04:18:15.510Z,11.30
2018-05-16T04:19:15.571Z,10.60
2018-05-16T04:20:15.630Z,11.20
2018-05-16T04:21:15.690Z,12.50
2018-05-16T04:22:15.751Z,13.30
2018-05-16T04:23:15.844Z,11.70
2018-05-16T04:24:15.953Z,13.30
2018-05-16T04:25:15.962Z,10.80
2018-05-16T04:26:16.025Z,11.30
2018-05-16T04:27:16.085Z,11.60
2018-05-16T04:28:16.141Z,10.50
2018-05-16T04:29:16.182Z,11.70
2018-05-16T04:30:16.235Z,12.00
2018-05-16T04:31:16.297Z,11.70
2018-05-16T04:32:16.352Z,9.90
2018-05-16T04:33:16.412Z,12.90
2018-05-16T04:34:16.473Z,10.00
2018-05-16T04:35:16.533Z,12.00
2018-05-16T04:36:16.593Z,11.20
2018-05-16T04:37:16.652Z,11.40
2018-05-16T04:38:16.713Z,10.10
2018-05-16T04:39:16.775Z,11.40
2018-05-16T04:40:16.832Z,13.70
2018-05-16T04:41:16.895Z,10.40
2018-05-16T04:42:16.970Z,11.10
2018-05-16T04:43:17.015Z,13.00
2018-05-16T04:44:17.073Z,10.70
2018-05-16T04:45:17.133Z,14.60
2018-05-16T04:46:17.193Z,9.50
2018-05-16T04:47:17.253Z,12.30
2018-05-16T04:48:17.312Z,10.80
2018-05-16T04:49:17.372Z,10.10
2018-05-16T04:50:17.434Z,11.00
2018-05-16T04:51:17.501Z,12.00
2018-05-16T04:52:17.554Z,9.90
2018-05-16T04:53:17.614Z,11.00
2018-05-16T04:54:17.675Z,8.90
2018-05-16T04:55:17.735Z,11.50
2018-05-16T04:56:17.794Z,11.00
2018-05-16T04:57:17.857Z,10.50
2018-05-16T04:58:17.914Z,11.10
2018-05-16T04:59:17.976Z,9.90
2018-05-16T05:00:18.036Z,12.80
2018-05-16T05:01:18.096Z,9.40
2018-05-16T05:02:18.156Z,9.90
2018-05-16T05:03:18.216Z,9.30
2018-05-16T05:04:18.276Z,10.40
2018-05-16T05:05:18.342Z,10.90
2018-05-16T05:06:18.402Z,10.60
2018-05-16T05:07:18.458Z,9.80
2018-05-16T05:08:18.517Z,10.10
2018-05-16T05:09:18.585Z,10.60
2018-05-16T05:10:18.640Z,9.30
2018-05-16T05:11:18.703Z,8.70
2018-05-16T05:12:18.785Z,9.10
2018-05-16T05:13:18.898Z,11.00
2018-05-16T05:14:18.882Z,11.10
2018-05-16T05:15:18.974Z,9.10
2018-05-16T05:16:19.087Z,9.20
2018-05-16T05:17:19.100Z,8.00
2018-05-16T05:18:19.179Z,8.10
2018-05-16T05:19:19.228Z,6.50
2018-05-16T05:20:19.251Z,10.20
2018-05-16T05:21:19.924Z,8.50
2018-05-16T05:22:19.845Z,10.10
2018-05-16T05:23:19.427Z,9.30
2018-05-16T05:24:19.487Z,7.80
2018-05-16T05:25:19.562Z,8.40
2018-05-16T05:26:19.608Z,10.90
2018-05-16T05:27:19.670Z,6.80
2018-05-16T05:28:19.825Z,7.30
2018-05-16T05:29:19.801Z,7.60
2018-05-16T05:30:19.949Z,8.00
2018-05-16T05:31:19.981Z,8.90
2018-05-16T05:32:19.971Z,10.60
2018-05-16T05:33:20.032Z,10.00
2018-05-16T05:34:20.092Z,8.50
2018-05-16T05:35:20.154Z,10.60
2018-05-16T05:36:20.221Z,8.20
2018-05-16T05:37:20.274Z,9.60
2018-05-16T05:38:20.335Z,10.90
2018-05-16T05:39:20.396Z,13.60
2018-05-16T05:40:20.457Z,11.90
2018-05-16T05:41:20.516Z,10.00
2018-05-16T05:42:20.578Z,11.00
2018-05-16T05:43:20.669Z,11.30
2018-05-16T05:44:20.698Z,13.40
2018-05-16T05:45:20.758Z,11.00
2018-05-16T05:46:20.819Z,10.90
2018-05-16T05:47:20.880Z,10.30
2018-05-16T05:48:20.940Z,9.20
2018-05-16T05:49:21.001Z,10.60
2018-05-16T05:50:21.062Z,9.10
2018-05-16T05:51:21.122Z,12.10
2018-05-16T05:52:21.183Z,9.70
2018-05-16T05:53:21.245Z,10.40
2018-05-16T05:54:21.304Z,10.60
2018-05-16T05:55:21.367Z,9.70
2018-05-16T05:56:21.425Z,9.60
2018-05-16T05:57:21.488Z,9.40
2018-05-16T05:58:21.549Z,10.00
2018-05-16T05:59:21.609Z,8.60
2018-05-16T06:00:21.671Z,9.40
2018-05-16T06:01:21.730Z,10.90
2018-05-16T06:02:21.791Z,8.90
2018-05-16T06:03:21.853Z,8.10
2018-05-16T06:04:21.913Z,10.70
2018-05-16T06:05:22.060Z,10.30
2018-05-16T06:06:22.035Z,9.90
2018-05-16T06:07:22.097Z,10.20
2018-05-16T06:08:22.158Z,10.50
2018-05-16T06:09:22.227Z,9.20
2018-05-16T06:10:22.280Z,9.50
2018-05-16T06:11:22.373Z,9.40
2018-05-16T06:12:22.405Z,8.50
2018-05-16T06:13:22.465Z,9.50
2018-05-16T06:14:22.557Z,10.30
2018-05-16T06:15:22.586Z,10.70
2018-05-16T06:16:22.647Z,10.40
2018-05-16T06:17:22.722Z,13.60
2018-05-16T06:18:22.772Z,11.40
2018-05-16T06:19:22.880Z,9.80
2018-05-16T06:20:22.921Z,10.30
2018-05-16T06:21:22.952Z,9.70
2018-05-16T06:22:23.014Z,9.40
2018-05-16T06:23:23.100Z,8.10
2018-05-16T06:24:23.139Z,9.70
2018-05-16T06:25:23.198Z,9.40
2018-05-16T06:26:23.305Z,10.30
2018-05-16T06:27:23.544Z,8.00
2018-05-16T06:28:23.382Z,8.70
2018-05-16T06:29:23.477Z,8.90
2018-05-16T06:30:23.602Z,8.50
2018-05-16T06:31:23.566Z,7.50
2018-05-16T06:32:23.626Z,8.20
2018-05-16T06:33:23.689Z,7.00
2018-05-16T06:34:23.750Z,7.30
2018-05-16T06:35:23.811Z,7.50
2018-05-16T06:36:23.872Z,7.30
2018-05-16T06:37:23.933Z,9.00
2018-05-16T06:38:23.996Z,7.30
2018-05-16T06:39:24.058Z,6.80
2018-05-16T06:40:24.118Z,7.70
2018-05-16T06:41:24.183Z,8.10
2018-05-16T06:42:24.241Z,6.60
2018-05-16T06:43:24.303Z,7.00
2018-05-16T06:44:24.418Z,7.00
2018-05-16T06:45:24.425Z,7.40
2018-05-16T06:46:24.487Z,7.30
2018-05-16T06:47:24.550Z,6.20
2018-05-16T06:48:24.608Z,8.30
2018-05-16T06:49:24.671Z,7.10
2018-05-16T06:50:24.733Z,7.30
2018-05-16T06:51:24.794Z,6.80
2018-05-16T06:52:24.856Z,8.10
2018-05-16T06:53:24.919Z,6.90
2018-05-16T06:54:24.978Z,6.10
2018-05-16T06:55:25.041Z,6.00
2018-05-16T06:56:25.135Z,7.10
2018-05-16T06:57:25.166Z,8.30
2018-05-16T06:58:25.225Z,5.70
2018-05-16T06:59:25.298Z,6.00
2018-05-16T07:00:25.347Z,6.50
2018-05-16T07:01:25.409Z,4.90
2018-05-16T07:02:25.472Z,7.10
2018-05-16T07:03:25.532Z,6.90
2018-05-16T07:04:25.593Z,5.70
2018-05-16T07:05:25.656Z,6.40
2018-05-16T07:06:25.717Z,5.00
2018-05-16T07:07:25.780Z,5.60
2018-05-16T07:08:25.840Z,5.50
2018-05-16T07:09:25.923Z,5.70
2018-05-16T07:10:25.984Z,5.70
2018-05-16T07:11:26.027Z,6.30
2018-05-16T07:12:26.112Z,5.90
2018-05-16T07:13:26.164Z,7.30
2018-05-16T07:14:26.214Z,5.40
2018-05-16T07:15:26.277Z,5.30
2018-05-16T07:16:26.368Z,5.20
2018-05-16T07:17:26.430Z,5.30
2018-05-16T07:18:26.476Z,7.10
2018-05-16T07:19:26.522Z,5.60
2018-05-16T07:20:27.210Z,6.10
2018-05-16T07:21:26.645Z,5.30
2018-05-16T07:22:27.113Z,5.90
2018-05-16T07:23:27.233Z,5.50
2018-05-16T07:24:26.831Z,5.60
2018-05-16T07:25:27.402Z,5.50
2018-05-16T07:26:26.976Z,4.60
2018-05-16T07:27:27.018Z,6.20
2018-05-16T07:28:27.097Z,5.10
2018-05-16T07:29:27.195Z,6.90
2018-05-16T07:30:27.223Z,6.00
2018-05-16T07:31:27.267Z,5.40
2018-05-16T07:32:27.336Z,5.10
2018-05-16T07:33:27.389Z,5.40
2018-05-16T07:34:27.452Z,5.80
2018-05-16T07:35:27.515Z,5.00
2018-05-16T07:36:27.576Z,5.60
2018-05-16T07:37:27.639Z,5.30
2018-05-16T07:38:27.703Z,4.20
2018-05-16T07:39:27.763Z,4.90
2018-05-16T07:40:27.825Z,5.50
2018-05-16T07:41:27.886Z,4.60
2018-05-16T07:42:27.950Z,5.80
2018-05-16T07:43:28.020Z,4.30
2018-05-16T07:44:28.075Z,4.00
2018-05-16T07:45:28.135Z,4.50
2018-05-16T07:46:28.198Z,4.50
2018-05-16T07:47:28.261Z,4.20
2018-05-16T07:48:28.323Z,3.70
2018-05-16T07:49:28.383Z,3.70
2018-05-16T07:50:28.447Z,4.30
2018-05-16T07:51:28.510Z,3.40
2018-05-16T07:52:28.571Z,4.60
2018-05-16T07:53:28.633Z,5.40
2018-05-16T07:54:28.695Z,4.70
2018-05-16T07:55:28.760Z,4.50
2018-05-16T07:56:28.825Z,4.70
2018-05-16T07:57:28.883Z,4.80
2018-05-16T07:58:29.281Z,4.30
2018-05-16T07:59:29.347Z,5.40
2018-05-16T08:00:29.069Z,4.70
2018-05-16T08:01:29.145Z,3.90
2018-05-16T08:02:29.196Z,4.70
2018-05-16T08:03:29.259Z,6.00
2018-05-16T08:04:29.319Z,4.30
2018-05-16T08:05:29.384Z,5.90
2018-05-16T08:06:29.454Z,4.70
2018-05-16T08:07:29.511Z,4.10
2018-05-16T08:08:29.570Z,5.20
2018-05-16T08:09:29.632Z,6.70
2018-05-16T08:10:29.695Z,7.40
2018-05-16T08:11:29.758Z,4.20
2018-05-16T08:12:29.823Z,6.30
2018-05-16T08:13:29.884Z,7.90
2018-05-16T08:14:29.949Z,4.80
2018-05-16T08:15:30.010Z,3.80
2018-05-16T08:16:30.071Z,4.50
2018-05-16T08:17:30.142Z,4.40
2018-05-16T08:18:30.195Z,4.40
2018-05-16T08:19:30.258Z,4.20
2018-05-16T08:20:30.319Z,3.90
2018-05-16T08:21:30.389Z,5.40
2018-05-16T08:22:30.446Z,3.90
2018-05-16T08:23:30.508Z,4.90
2018-05-16T08:24:30.572Z,4.60
2018-05-16T08:25:30.633Z,3.90
2018-05-16T08:26:30.696Z,4.90
2018-05-16T08:27:30.758Z,3.30
2018-05-16T08:28:30.820Z,3.80
2018-05-16T08:29:30.889Z,4.50
2018-05-16T08:30:30.947Z,4.00
2018-05-16T08:31:31.016Z,4.20
2018-05-16T08:32:31.071Z,6.50
2018-05-16T08:33:31.135Z,3.80
2018-05-16T08:34:31.197Z,5.30
2018-05-16T08:35:31.261Z,5.10
2018-05-16T08:36:31.321Z,3.90
2018-05-16T08:37:37.652Z,4.50
2018-05-16T08:38:31.448Z,3.50
2018-05-16T08:39:31.511Z,6.60
2018-05-16T08:40:31.572Z,3.80
2018-05-16T08:41:31.637Z,5.10
2018-05-16T08:42:31.699Z,5.00
2018-05-16T08:43:31.763Z,5.60
2018-05-16T08:44:31.827Z,3.60
2018-05-16T08:45:31.888Z,5.40
2018-05-16T08:46:32.004Z,6.40
2018-05-16T08:47:32.020Z,4.40
2018-05-16T08:48:32.078Z,4.20
2018-05-16T08:49:32.140Z,3.40
2018-05-16T08:50:32.204Z,6.50
2018-05-16T08:51:32.267Z,4.40
2018-05-16T08:52:32.377Z,6.40
2018-05-16T08:53:32.443Z,4.40
2018-05-16T08:54:32.494Z,4.00
2018-05-16T08:55:32.868Z,4.00
2018-05-16T08:56:32.584Z,4.50
2018-05-16T08:57:32.648Z,4.10
2018-05-16T08:58:32.716Z,4.90
2018-05-16T08:59:32.777Z,5.20
2018-05-16T09:00:32.840Z,4.60
2018-05-16T09:01:32.902Z,4.30
2018-05-16T09:02:32.965Z,4.00
2018-05-16T09:03:33.030Z,5.30
2018-05-16T09:04:33.093Z,4.20
2018-05-16T09:05:33.157Z,3.70
2018-05-16T09:06:33.220Z,6.60
2018-05-16T09:07:33.293Z,5.90
2018-05-16T09:08:33.348Z,4.00
2018-05-16T09:09:33.411Z,6.10
2018-05-16T09:10:33.475Z,5.40
2018-05-16T09:11:33.538Z,4.20
2018-05-16T09:12:33.602Z,4.20
2018-05-16T09:13:33.670Z,5.10
2018-05-16T09:14:33.732Z,5.20
2018-05-16T09:15:33.793Z,4.00
2018-05-16T09:16:34.299Z,4.60
2018-05-16T09:17:33.923Z,3.60
2018-05-16T09:18:33.987Z,4.30
2018-05-16T09:19:34.051Z,5.00
2018-05-16T09:20:34.115Z,4.30
2018-05-16T09:21:34.180Z,4.00
2018-05-16T09:22:34.246Z,3.30
2018-05-16T09:23:34.326Z,4.30
2018-05-16T09:24:34.375Z,4.90
2018-05-16T09:25:34.441Z,4.30
2018-05-16T09:26:34.505Z,4.00
2018-05-16T09:27:34.572Z,4.10
2018-05-16T09:28:34.637Z,4.20
2018-05-16T09:29:34.702Z,4.80
2018-05-16T09:30:34.769Z,5.70
2018-05-16T09:31:34.836Z,3.80
2018-05-16T09:32:34.908Z,5.20
2018-05-16T09:33:34.964Z,3.70
2018-05-16T09:34:35.030Z,4.40
2018-05-16T09:35:35.096Z,3.70
2018-05-16T09:36:35.196Z,4.40
2018-05-16T09:37:35.228Z,5.40
2018-05-16T09:38:35.293Z,3.60
2018-05-16T09:39:35.360Z,4.60
2018-05-16T09:40:35.424Z,4.40
2018-05-16T09:41:35.490Z,3.70
2018-05-16T09:42:35.706Z,3.20
2018-05-16T09:43:35.685Z,5.60
2018-05-16T09:44:35.687Z,5.80
2018-05-16T09:45:35.797Z,4.10
2018-05-16T09:46:35.817Z,3.50
2018-05-16T09:47:35.885Z,4.50
2018-05-16T09:48:35.949Z,3.90
2018-05-16T09:49:36.015Z,4.30
2018-05-16T09:50:36.079Z,5.00
2018-05-16T09:51:36.387Z,6.90
2018-05-16T09:52:36.211Z,3.90
2018-05-16T09:53:36.276Z,5.30
2018-05-16T09:54:36.342Z,4.60
2018-05-16T09:55:37.009Z,5.60
2018-05-16T09:56:36.475Z,5.60
2018-05-16T09:57:36.540Z,5.60
2018-05-16T09:58:36.605Z,4.90
2018-05-16T09:59:36.674Z,4.00
2018-05-16T10:00:36.736Z,6.00
2018-05-16T10:01:37.370Z,8.90
2018-05-16T10:02:37.526Z,5.50
2018-05-16T10:03:36.960Z,5.20
2018-05-16T10:04:37.001Z,4.60
2018-05-16T10:05:37.067Z,4.30
2018-05-16T10:06:37.133Z,5.80
2018-05-16T10:07:37.199Z,3.90
2018-05-16T10:08:37.264Z,4.90
2018-05-16T10:09:37.381Z,3.90
2018-05-16T10:10:37.400Z,4.60
2018-05-16T10:11:37.468Z,5.80
2018-05-16T10:12:37.532Z,4.60
2018-05-16T10:13:37.600Z,5.30
2018-05-16T10:14:37.669Z,6.30
2018-05-16T10:15:37.736Z,6.00
2018-05-16T10:16:37.802Z,6.20
2018-05-16T10:17:37.874Z,4.40
2018-05-16T10:18:37.938Z,6.40
2018-05-16T10:19:38.008Z,4.40
2018-05-16T10:20:38.072Z,7.20
2018-05-16T10:21:38.140Z,4.80
2018-05-16T10:22:38.208Z,6.10
2018-05-16T10:23:38.364Z,5.00
2018-05-16T10:24:38.341Z,4.60
2018-05-16T10:25:38.410Z,6.40
2018-05-16T10:26:39.297Z,4.90
2018-05-16T10:27:38.545Z,5.10
2018-05-16T10:28:38.614Z,5.20
2018-05-16T10:29:38.681Z,6.10
2018-05-16T10:30:38.749Z,6.30
2018-05-16T10:31:38.818Z,5.40
2018-05-16T10:32:38.885Z,4.20
2018-05-16T10:33:38.953Z,5.20
2018-05-16T10:34:39.041Z,4.40
2018-05-16T10:35:39.092Z,5.10
2018-05-16T10:36:39.156Z,6.90
2018-05-16T10:37:39.229Z,3.60
2018-05-16T10:38:39.295Z,5.10
2018-05-16T10:39:39.366Z,4.60
2018-05-16T10:40:39.437Z,5.80
2018-05-16T10:41:39.500Z,5.50
2018-05-16T10:42:39.569Z,4.30
2018-05-16T10:43:39.640Z,4.90
2018-05-16T10:44:39.722Z,4.60
2018-05-16T10:45:39.776Z,6.00
2018-05-16T10:46:39.845Z,5.50
2018-05-16T10:47:39.916Z,4.80
2018-05-16T10:48:39.983Z,7.80
2018-05-16T10:49:40.054Z,6.50
2018-05-16T10:50:40.125Z,6.30
2018-05-16T10:51:40.862Z,5.40
2018-05-16T10:52:40.263Z,5.40
2018-05-16T10:53:40.342Z,6.60
2018-05-16T10:54:40.409Z,6.30
2018-05-16T10:55:40.479Z,5.20
2018-05-16T10:56:40.549Z,6.70
2018-05-16T10:57:40.621Z,6.80
2018-05-16T10:58:40.695Z,4.90
2018-05-16T10:59:40.765Z,7.80
2018-05-16T11:00:40.839Z,4.80
2018-05-16T11:01:40.911Z,5.00
2018-05-16T11:02:40.981Z,5.90
2018-05-16T11:03:41.054Z,5.00
2018-05-16T11:04:41.126Z,5.00
2018-05-16T11:05:41.198Z,4.80
2018-05-16T11:06:41.270Z,5.70
2018-05-16T11:07:41.342Z,4.20
2018-05-16T11:08:41.418Z,5.70
2018-05-16T11:09:41.487Z,5.00
2018-05-16T11:10:41.559Z,7.20
2018-05-16T11:11:41.628Z,5.10
2018-05-16T11:12:41.695Z,6.20
2018-05-16T11:13:41.765Z,6.10
2018-05-16T11:14:41.836Z,4.80
2018-05-16T11:15:41.906Z,5.70
2018-05-16T11:16:41.974Z,6.40
2018-05-16T11:17:42.742Z,6.90
2018-05-16T11:18:42.119Z,6.50
2018-05-16T11:19:42.184Z,5.20
2018-05-16T11:20:42.254Z,5.40
2018-05-16T11:21:42.327Z,5.80
2018-05-16T11:22:42.395Z,6.80
2018-05-16T11:23:43.008Z,6.20
2018-05-16T11:24:42.537Z,4.90
2018-05-16T11:25:42.610Z,6.80
2018-05-16T11:26:42.686Z,5.20
2018-05-16T11:27:42.770Z,5.90
2018-05-16T11:28:42.824Z,8.20
2018-05-16T11:29:42.908Z,5.20
2018-05-16T11:30:42.969Z,6.90
2018-05-16T11:31:43.041Z,6.60
2018-05-16T11:32:43.687Z,6.40
2018-05-16T11:33:43.191Z,6.50
2018-05-16T11:34:43.262Z,5.00
2018-05-16T11:35:43.339Z,8.90
2018-05-16T11:36:43.498Z,6.10
2018-05-16T11:37:43.482Z,7.30
2018-05-16T11:38:43.554Z,6.50
2018-05-16T11:39:44.289Z,6.50
2018-05-16T11:40:43.701Z,5.50
2018-05-16T11:41:44.414Z,8.10
2018-05-16T11:42:43.848Z,6.40
2018-05-16T11:43:43.922Z,6.30
2018-05-16T11:44:44.679Z,7.40
2018-05-16T11:45:44.069Z,7.60
2018-05-16T11:46:44.144Z,9.00
2018-05-16T11:47:44.220Z,7.90
2018-05-16T11:48:44.310Z,6.70
2018-05-16T11:49:44.365Z,7.70
2018-05-16T11:50:44.439Z,7.20
2018-05-16T11:51:44.514Z,7.50
2018-05-16T11:52:44.583Z,6.00
2018-05-16T11:53:44.667Z,5.80
2018-05-16T11:54:44.732Z,6.40
2018-05-16T11:55:44.806Z,5.30
2018-05-16T11:56:44.877Z,6.80
2018-05-16T11:57:44.950Z,5.80
2018-05-16T11:58:45.026Z,7.30
2018-05-16T11:59:45.102Z,7.00
2018-05-16T12:00:45.172Z,7.10
2018-05-16T12:01:45.250Z,8.10
2018-05-16T12:02:45.398Z,6.00
2018-05-16T12:03:45.392Z,7.60
2018-05-16T12:04:45.467Z,6.40
2018-05-16T12:05:45.536Z,6.00
2018-05-16T12:06:45.609Z,6.20
2018-05-16T12:07:45.680Z,7.40
2018-05-16T12:08:45.757Z,6.60
2018-05-16T12:09:45.827Z,7.00
2018-05-16T12:10:45.899Z,6.10
2018-05-16T12:11:45.971Z,5.10
2018-05-16T12:12:46.044Z,9.40
2018-05-16T12:13:46.118Z,8.70
2018-05-16T12:14:46.247Z,7.00
2018-05-16T12:15:46.262Z,8.50
2018-05-16T12:16:46.334Z,11.70
2018-05-16T12:17:46.407Z,6.90
2018-05-16T12:18:46.478Z,5.90
2018-05-16T12:19:46.551Z,5.20
2018-05-16T12:20:46.702Z,5.40
2018-05-16T12:21:46.716Z,7.90
2018-05-16T12:22:46.769Z,5.70
2018-05-16T12:23:46.847Z,5.40
2018-05-16T12:24:46.911Z,5.60
2018-05-16T12:25:47.000Z,8.30
2018-05-16T12:26:47.055Z,6.10
2018-05-16T12:27:47.127Z,5.90
2018-05-16T12:28:47.209Z,10.70
2018-05-16T12:29:47.286Z,7.40
2018-05-16T12:30:47.345Z,7.20
2018-05-16T12:31:47.417Z,8.10
2018-05-16T12:32:47.487Z,6.10
2018-05-16T12:33:47.563Z,5.70
2018-05-16T12:34:47.632Z,6.00
2018-05-16T12:35:47.705Z,5.10
2018-05-16T12:36:47.775Z,5.90
2018-05-16T12:37:47.848Z,4.90
2018-05-16T12:38:47.921Z,5.20
2018-05-16T12:39:47.993Z,6.00
2018-05-16T12:40:48.065Z,5.00
2018-05-16T12:41:48.138Z,4.20
2018-05-16T12:42:48.211Z,5.00
2018-05-16T12:43:48.282Z,5.00
2018-05-16T12:44:48.355Z,8.30
2018-05-16T12:45:48.425Z,4.80
2018-05-16T12:46:48.499Z,6.20
2018-05-16T12:47:48.575Z,6.30
2018-05-16T12:48:48.645Z,5.10
2018-05-16T12:49:48.713Z,4.70
2018-05-16T12:50:49.314Z,8.20
2018-05-16T12:51:48.858Z,5.00
2018-05-16T12:52:48.937Z,8.20
2018-05-16T12:53:49.002Z,11.50
2018-05-16T12:54:49.078Z,7.10
2018-05-16T12:55:49.175Z,5.20
2018-05-16T12:56:49.219Z,8.80
2018-05-16T12:57:49.370Z,6.90
2018-05-16T12:58:49.366Z,8.30
2018-05-16T12:59:49.439Z,8.20
2018-05-16T13:00:49.510Z,5.70
2018-05-16T13:01:49.584Z,6.30
2018-05-16T13:02:49.656Z,5.60
2018-05-16T13:03:49.729Z,6.40
2018-05-16T13:04:49.800Z,6.10
2018-05-16T13:05:49.873Z,6.00
2018-05-16T13:06:49.945Z,9.00
2018-05-16T13:07:50.018Z,5.60
2018-05-16T13:08:50.099Z,8.80
2018-05-16T13:09:50.526Z,5.90
2018-05-16T13:10:50.236Z,6.50
2018-05-16T13:11:50.306Z,5.40